createdAt,value
2019-03-24T00:01:22.155Z,5.39
2019-03-24T00:03:50.400Z,5.35
2019-03-24T00:06:18.681Z,5.38
2019-03-24T00:08:46.948Z,5.37
2019-03-24T00:11:15.303Z,5.37
2019-03-24T00:13:43.730Z,5.37
2019-03-24T00:16:11.975Z,5.36
2019-03-24T00:18:40.289Z,5.36
2019-03-24T00:21:08.608Z,5.32
2019-03-24T00:23:37.050Z,5.33
2019-03-24T00:26:05.326Z,5.35
2019-03-24T00:28:34.139Z,5.31
2019-03-24T00:31:02.457Z,5.36
2019-03-24T00:33:32.368Z,5.36
2019-03-24T00:36:00.606Z,5.34
2019-03-24T00:38:28.993Z,5.34
2019-03-24T00:40:57.371Z,5.36
2019-03-24T00:43:28.638Z,5.36
2019-03-24T00:45:57.016Z,5.36
2019-03-24T00:48:25.301Z,5.36
2019-03-24T00:50:53.581Z,5.32
2019-03-24T00:53:21.979Z,5.32
2019-03-24T00:55:50.545Z,5.37
2019-03-24T00:58:18.791Z,5.36
2019-03-24T01:00:49.137Z,5.36
2019-03-24T01:03:17.387Z,5.38
2019-03-24T01:05:45.741Z,5.35
2019-03-24T01:08:14.204Z,5.35
2019-03-24T01:10:42.501Z,5.39
2019-03-24T01:13:12.510Z,5.39
2019-03-24T01:15:47.648Z,5.38
2019-03-24T01:18:11.183Z,5.38
2019-03-24T01:20:39.459Z,5.39
2019-03-24T01:23:07.774Z,5.37
2019-03-24T01:25:36.118Z,5.37
2019-03-24T01:30:26.763Z,5.28
2019-03-24T01:32:55.050Z,5.28
2019-03-24T01:35:23.336Z,5.31
2019-03-24T01:37:51.662Z,5.27
2019-03-24T01:40:20.002Z,5.27
2019-03-24T01:42:48.248Z,5.25
2019-03-24T01:45:16.565Z,5.25
2019-03-24T01:47:44.870Z,5.25
2019-03-24T01:50:13.179Z,5.22
2019-03-24T01:52:41.628Z,5.22
2019-03-24T01:55:09.912Z,5.21
2019-03-24T01:57:38.157Z,5.19
2019-03-24T02:00:07.533Z,5.16
2019-03-24T02:02:35.798Z,5.15
2019-03-24T02:05:08.296Z,5.12
2019-03-24T02:07:36.621Z,5.13
2019-03-24T02:10:07.058Z,5.08
2019-03-24T02:12:35.463Z,5.10
2019-03-24T02:15:05.561Z,5.06
2019-03-24T02:17:33.863Z,5.07
2019-03-24T02:20:02.311Z,5.04
2019-03-24T02:22:30.635Z,5.04
2019-03-24T02:24:58.936Z,4.97
2019-03-24T02:27:27.404Z,5.02
2019-03-24T02:29:55.714Z,5.01
2019-03-24T02:32:23.966Z,4.96
2019-03-24T02:34:52.336Z,4.98
2019-03-24T02:37:20.590Z,4.93
2019-03-24T02:39:49.090Z,4.93
2019-03-24T02:42:17.488Z,4.93
2019-03-24T02:44:45.738Z,4.91
2019-03-24T02:47:14.034Z,4.95
2019-03-24T02:49:42.313Z,4.95
2019-03-24T02:52:10.551Z,4.95
2019-03-24T02:54:38.827Z,4.92
2019-03-24T02:57:07.115Z,4.93
2019-03-24T02:59:35.547Z,4.93
2019-03-24T03:02:03.846Z,4.93
2019-03-24T03:04:32.116Z,4.91
2019-03-24T03:07:00.514Z,4.88
2019-03-24T03:09:28.818Z,4.81
2019-03-24T03:11:57.094Z,4.88
2019-03-24T03:14:25.459Z,4.88
2019-03-24T03:16:53.877Z,4.87
2019-03-24T03:19:22.266Z,4.87
2019-03-24T03:21:50.761Z,4.87
2019-03-24T03:24:19.011Z,4.85
2019-03-24T03:26:47.310Z,4.84
2019-03-24T03:29:15.688Z,4.78
2019-03-24T03:31:43.949Z,4.75
2019-03-24T03:34:12.229Z,4.73
2019-03-24T03:36:40.566Z,4.73
2019-03-24T03:39:08.822Z,4.72
2019-03-24T03:41:37.088Z,4.69
2019-03-24T03:44:05.357Z,4.63
2019-03-24T03:46:33.937Z,4.59
2019-03-24T03:49:02.243Z,4.58
2019-03-24T03:51:30.462Z,4.56
2019-03-24T03:53:59.191Z,4.57
2019-03-24T03:56:27.812Z,4.57
2019-03-24T03:58:56.064Z,4.57
2019-03-24T04:01:24.452Z,4.55
2019-03-24T04:03:52.792Z,4.56
2019-03-24T04:06:21.024Z,4.56
2019-03-24T04:08:49.452Z,4.56
2019-03-24T04:11:19.130Z,4.55
2019-03-24T04:13:47.364Z,4.53
2019-03-24T04:16:15.644Z,4.50
2019-03-24T04:18:43.916Z,4.50
2019-03-24T04:21:12.275Z,4.50
2019-03-24T04:23:40.524Z,4.51
2019-03-24T04:26:09.065Z,4.50
2019-03-24T04:28:37.361Z,4.49
2019-03-24T04:31:05.595Z,4.49
2019-03-24T04:33:33.963Z,4.45
2019-03-24T04:36:02.317Z,4.45
2019-03-24T04:38:30.567Z,4.45
2019-03-24T04:40:59.057Z,4.45
2019-03-24T04:43:27.311Z,4.44
2019-03-24T04:45:55.669Z,4.44
2019-03-24T04:48:23.939Z,4.44
2019-03-24T04:50:52.226Z,4.45
2019-03-24T04:53:20.850Z,4.45
2019-03-24T04:55:50.760Z,4.43
2019-03-24T04:58:19.007Z,4.43
2019-03-24T05:00:47.281Z,4.41
2019-03-24T05:03:15.576Z,4.42
2019-03-24T05:05:43.958Z,4.43
2019-03-24T05:08:12.787Z,4.39
2019-03-24T05:10:41.143Z,4.44
2019-03-24T05:13:09.437Z,4.44
2019-03-24T05:15:37.785Z,4.43
2019-03-24T05:18:06.093Z,4.43
2019-03-24T05:20:34.469Z,4.41
2019-03-24T05:36:12.838Z,4.30
2019-03-24T05:38:41.221Z,4.26
2019-03-24T05:41:09.516Z,4.22
2019-03-24T05:43:39.250Z,4.21
2019-03-24T05:46:07.642Z,4.18
2019-03-24T05:48:35.882Z,4.16
2019-03-24T05:51:05.008Z,4.14
2019-03-24T05:53:33.311Z,4.12
2019-03-24T05:56:01.685Z,4.12
2019-03-24T05:58:30.003Z,4.08
2019-03-24T06:00:58.312Z,4.06
2019-03-24T06:03:26.581Z,4.04
2019-03-24T06:05:54.878Z,4.00
2019-03-24T06:08:23.258Z,4.00
2019-03-24T06:10:51.519Z,3.98
2019-03-24T06:13:19.817Z,3.96
2019-03-24T06:15:48.077Z,3.94
2019-03-24T06:18:16.320Z,3.92
2019-03-24T06:20:44.647Z,3.90
2019-03-24T06:23:12.921Z,3.92
2019-03-24T06:25:41.205Z,3.92
2019-03-24T06:28:09.519Z,3.93
2019-03-24T06:30:37.848Z,3.95
2019-03-24T06:33:06.058Z,3.96
2019-03-24T06:35:34.306Z,3.98
2019-03-24T06:38:02.714Z,3.99
2019-03-24T06:40:31.115Z,4.04
2019-03-24T06:43:00.378Z,4.08
2019-03-24T06:45:29.095Z,4.12
2019-03-24T06:47:58.390Z,4.18
2019-03-24T06:50:26.765Z,4.25
2019-03-24T06:52:55.018Z,4.33
2019-03-24T06:55:23.311Z,4.39
2019-03-24T06:57:51.552Z,4.45
2019-03-24T07:00:19.807Z,4.54
2019-03-24T07:02:48.222Z,4.62
2019-03-24T07:05:16.609Z,4.70
2019-03-24T07:07:44.954Z,4.81
2019-03-24T07:10:13.245Z,4.93
2019-03-24T07:12:41.518Z,5.13
2019-03-24T07:15:09.786Z,5.13
2019-03-24T07:17:39.410Z,5.30
2019-03-24T07:20:07.837Z,5.30
2019-03-24T07:22:36.894Z,5.39
2019-03-24T07:25:05.371Z,5.53
2019-03-24T07:27:33.755Z,5.53
2019-03-24T07:30:50.938Z,5.75
2019-03-24T07:33:19.208Z,5.84
2019-03-24T07:35:47.458Z,5.84
2019-03-24T07:38:15.773Z,5.91
2019-03-24T07:40:44.070Z,5.94
2019-03-24T07:43:12.312Z,6.10
2019-03-24T07:45:40.594Z,6.21
2019-03-24T07:48:18.699Z,6.21
2019-03-24T07:50:39.299Z,6.29
2019-03-24T07:53:07.548Z,6.35
2019-03-24T07:55:36.084Z,6.43
2019-03-24T07:58:04.357Z,6.59
2019-03-24T08:00:34.194Z,6.59
2019-03-24T08:03:02.437Z,6.67
2019-03-24T08:05:30.717Z,6.79
2019-03-24T08:07:59.009Z,6.86
2019-03-24T08:10:27.518Z,6.97
2019-03-24T08:12:56.036Z,7.08
2019-03-24T08:15:24.436Z,7.14
2019-03-24T08:17:52.679Z,7.16
2019-03-24T08:20:20.924Z,7.27
2019-03-24T08:22:49.191Z,7.39
2019-03-24T08:25:19.142Z,7.52
2019-03-24T08:27:47.680Z,7.66
2019-03-24T08:30:19.236Z,7.78
2019-03-24T08:32:47.514Z,7.86
2019-03-24T08:35:15.812Z,7.99
2019-03-24T08:37:44.172Z,8.07
2019-03-24T08:40:12.418Z,8.14
2019-03-24T08:42:40.848Z,8.24
2019-03-24T08:45:12.421Z,8.31
2019-03-24T08:47:40.660Z,8.39
2019-03-24T08:50:08.932Z,8.47
2019-03-24T08:52:37.651Z,8.55
2019-03-24T08:55:06.640Z,8.62
2019-03-24T08:57:34.934Z,8.69
2019-03-24T09:00:04.148Z,8.75
2019-03-24T09:02:32.503Z,8.81
2019-03-24T09:05:00.842Z,8.76
2019-03-24T09:07:29.151Z,8.80
2019-03-24T09:09:57.395Z,8.79
2019-03-24T09:12:25.667Z,8.82
2019-03-24T09:14:54.547Z,8.87
2019-03-24T09:17:22.890Z,8.89
2019-03-24T09:19:51.566Z,8.94
2019-03-24T09:22:19.826Z,9.01
2019-03-24T09:24:48.118Z,9.07
2019-03-24T09:27:16.378Z,9.10
2019-03-24T09:29:44.630Z,9.12
2019-03-24T09:32:12.909Z,9.17
2019-03-24T09:34:41.196Z,9.22
2019-03-24T09:37:09.441Z,9.25
2019-03-24T09:39:37.782Z,9.27
2019-03-24T09:42:06.160Z,9.30
2019-03-24T09:44:34.410Z,9.30
2019-03-24T09:47:02.691Z,9.37
2019-03-24T09:49:30.934Z,9.43
2019-03-24T09:51:59.229Z,9.52
2019-03-24T09:54:27.474Z,9.58
2019-03-24T09:56:55.863Z,9.67
2019-03-24T09:59:24.875Z,9.74
2019-03-24T10:01:53.162Z,9.85
2019-03-24T10:04:21.480Z,9.94
2019-03-24T10:06:49.745Z,9.99
2019-03-24T10:09:18.223Z,10.07
2019-03-24T10:11:46.466Z,10.20
2019-03-24T10:14:14.750Z,10.30
2019-03-24T10:16:43.041Z,10.37
2019-03-24T10:19:14.360Z,10.42
2019-03-24T10:21:41.452Z,10.36
2019-03-24T10:24:09.734Z,10.44
2019-03-24T10:26:38.007Z,10.59
2019-03-24T10:29:06.455Z,10.81
2019-03-24T10:31:34.719Z,10.72
2019-03-24T10:34:03.540Z,10.70
2019-03-24T10:36:32.242Z,10.68
2019-03-24T10:39:00.516Z,10.68
2019-03-24T10:41:28.865Z,10.79
2019-03-24T10:43:57.178Z,10.99
2019-03-24T10:46:25.744Z,10.97
2019-03-24T10:48:54.093Z,10.78
2019-03-24T10:51:22.346Z,10.81
2019-03-24T10:53:51.180Z,10.86
2019-03-24T10:56:19.495Z,10.78
2019-03-24T10:58:48.201Z,10.89
2019-03-24T11:01:16.416Z,10.97
2019-03-24T11:03:44.771Z,11.16
2019-03-24T11:06:13.404Z,11.37
2019-03-24T11:08:42.321Z,11.48
2019-03-24T11:11:13.501Z,11.37
2019-03-24T11:13:41.760Z,11.38
2019-03-24T11:16:10.005Z,11.39
2019-03-24T11:18:38.308Z,11.34
2019-03-24T11:21:08.814Z,11.33
2019-03-24T11:23:36.742Z,11.27
2019-03-24T11:26:04.987Z,11.30
2019-03-24T11:28:33.824Z,11.43
2019-03-24T11:31:02.423Z,11.51
2019-03-24T11:33:30.707Z,11.49
2019-03-24T11:35:59.079Z,11.50
2019-03-24T11:38:27.376Z,11.63
2019-03-24T11:40:55.738Z,11.79
2019-03-24T11:43:24.032Z,11.85
2019-03-24T11:45:52.271Z,11.75
2019-03-24T11:48:20.710Z,11.74
2019-03-24T11:50:51.014Z,12.03
2019-03-24T11:53:19.254Z,12.28
2019-03-24T11:55:47.568Z,12.63
2019-03-24T11:58:15.842Z,12.98
2019-03-24T12:00:44.140Z,13.25
2019-03-24T12:03:12.791Z,13.52
2019-03-24T12:05:41.060Z,13.77
2019-03-24T12:08:09.398Z,13.89
2019-03-24T12:10:37.667Z,14.00
2019-03-24T12:13:05.969Z,13.88
2019-03-24T12:15:34.208Z,14.12
2019-03-24T12:18:02.548Z,14.26
2019-03-24T12:20:31.235Z,14.54
2019-03-24T12:22:59.486Z,14.54
2019-03-24T12:25:27.725Z,14.32
2019-03-24T12:27:56.567Z,14.15
2019-03-24T12:30:24.856Z,13.94
2019-03-24T12:32:53.123Z,13.84
2019-03-24T12:35:21.715Z,13.87
2019-03-24T12:37:50.036Z,14.05
2019-03-24T12:40:18.339Z,14.21
2019-03-24T12:42:46.596Z,14.10
2019-03-24T12:45:14.920Z,14.02
2019-03-24T12:47:43.260Z,14.00
2019-03-24T12:50:11.496Z,13.84
2019-03-24T12:52:39.775Z,14.14
2019-03-24T12:55:08.034Z,14.32
2019-03-24T12:57:36.333Z,14.58
2019-03-24T13:00:10.402Z,14.87
2019-03-24T13:02:38.707Z,15.04
2019-03-24T13:05:09.949Z,15.15
2019-03-24T13:07:38.221Z,15.23
2019-03-24T13:10:06.970Z,15.36
2019-03-24T13:12:35.807Z,15.53
2019-03-24T13:15:06.904Z,15.41
2019-03-24T13:17:35.218Z,14.95
2019-03-24T13:20:05.663Z,14.95
2019-03-24T13:22:35.250Z,14.80
2019-03-24T13:25:05.720Z,14.83
2019-03-24T13:27:34.034Z,14.61
2019-03-24T13:30:02.310Z,14.43
2019-03-24T13:32:30.822Z,14.27
2019-03-24T13:34:59.068Z,14.27
2019-03-24T13:37:27.355Z,14.15
2019-03-24T13:39:55.745Z,13.93
2019-03-24T13:42:24.052Z,13.87
2019-03-24T13:44:52.407Z,13.85
2019-03-24T13:47:20.735Z,13.96
2019-03-24T13:49:48.994Z,14.17
2019-03-24T13:52:17.258Z,14.52
2019-03-24T13:54:45.589Z,14.87
2019-03-24T13:57:14.052Z,15.08
2019-03-24T13:59:42.347Z,15.17
2019-03-24T14:02:11.281Z,15.39
2019-03-24T14:04:39.695Z,15.60
2019-03-24T14:07:07.928Z,15.48
2019-03-24T14:09:36.266Z,15.33
2019-03-24T14:12:04.535Z,15.15
2019-03-24T14:14:32.920Z,14.98
2019-03-24T14:17:01.251Z,14.80
2019-03-24T14:19:29.482Z,14.69
2019-03-24T14:21:57.767Z,14.47
2019-03-24T14:24:26.008Z,14.25
2019-03-24T14:26:54.521Z,14.08
2019-03-24T14:29:22.823Z,13.82
2019-03-24T14:31:51.105Z,13.67
2019-03-24T14:34:19.485Z,13.66
2019-03-24T14:36:48.974Z,13.71
2019-03-24T14:39:17.214Z,13.64
2019-03-24T14:41:45.584Z,13.47
2019-03-24T14:44:13.919Z,13.30
2019-03-24T14:46:42.210Z,13.11
2019-03-24T14:49:10.501Z,12.84
2019-03-24T14:51:38.749Z,12.52
2019-03-24T14:54:07.050Z,12.51
2019-03-24T14:56:35.450Z,12.54
2019-03-24T14:59:03.689Z,12.48
2019-03-24T15:01:31.928Z,12.30
2019-03-24T15:04:00.310Z,12.21
2019-03-24T15:06:28.827Z,12.26
2019-03-24T15:08:57.306Z,12.41
2019-03-24T15:11:25.592Z,12.61
2019-03-24T15:13:53.883Z,12.86
2019-03-24T15:16:22.143Z,12.95
2019-03-24T15:18:50.723Z,12.78
2019-03-24T15:21:19.153Z,12.71
2019-03-24T15:23:47.511Z,12.60
2019-03-24T15:26:15.806Z,12.43
2019-03-24T15:28:44.215Z,12.51
2019-03-24T15:31:12.494Z,12.50
2019-03-24T15:33:40.760Z,12.28
2019-03-24T15:36:09.201Z,12.11
2019-03-24T15:38:37.434Z,12.05
2019-03-24T15:41:05.695Z,12.02
2019-03-24T15:43:34.112Z,11.97
2019-03-24T15:46:02.521Z,11.82
2019-03-24T15:48:30.828Z,11.73
2019-03-24T15:50:59.203Z,11.54
2019-03-24T15:53:27.590Z,11.42
2019-03-24T15:55:55.834Z,11.35
2019-03-24T15:58:24.079Z,11.40
2019-03-24T16:00:52.342Z,11.39
2019-03-24T16:03:20.585Z,11.40
2019-03-24T16:05:48.883Z,11.41
2019-03-24T16:08:17.598Z,11.42
2019-03-24T16:10:45.840Z,11.32
2019-03-24T16:13:14.227Z,11.22
2019-03-24T16:15:42.520Z,11.15
2019-03-24T16:18:10.764Z,11.14
2019-03-24T16:20:39.067Z,11.06
2019-03-24T16:23:07.428Z,11.02
2019-03-24T16:25:35.791Z,11.02
2019-03-24T16:28:04.457Z,11.02
2019-03-24T16:30:32.904Z,11.00
2019-03-24T16:33:01.147Z,10.95
2019-03-24T16:35:29.867Z,11.00
2019-03-24T16:37:58.156Z,10.91
2019-03-24T16:40:26.447Z,10.88
2019-03-24T16:42:54.732Z,10.85
2019-03-24T16:45:23.793Z,10.80
2019-03-24T16:47:52.070Z,10.70
2019-03-24T16:50:20.350Z,10.67
2019-03-24T16:52:48.737Z,10.59
2019-03-24T16:55:16.979Z,10.63
2019-03-24T16:57:45.541Z,10.54
2019-03-24T17:00:13.937Z,10.51
2019-03-24T17:02:42.175Z,10.47
2019-03-24T17:05:12.076Z,10.45
2019-03-24T17:07:40.369Z,10.41
2019-03-24T17:10:08.623Z,10.37
2019-03-24T17:12:36.959Z,10.37
2019-03-24T17:15:08.042Z,10.29
2019-03-24T17:17:36.273Z,10.17
2019-03-24T17:20:07.811Z,10.08
2019-03-24T17:22:36.217Z,10.04
2019-03-24T17:25:05.134Z,9.99
2019-03-24T17:27:33.481Z,9.93
2019-03-24T17:30:01.745Z,9.91
2019-03-24T17:32:29.970Z,9.84
2019-03-24T17:34:58.288Z,9.80
2019-03-24T17:37:26.583Z,9.75
2019-03-24T17:39:54.989Z,9.68
2019-03-24T17:42:23.272Z,9.58
2019-03-24T17:44:51.543Z,9.53
2019-03-24T17:47:19.840Z,9.45
2019-03-24T17:49:48.217Z,9.41
2019-03-24T17:52:16.461Z,9.33
2019-03-24T17:54:44.695Z,9.32
2019-03-24T17:57:12.959Z,9.24
2019-03-24T17:59:41.230Z,9.17
2019-03-24T18:02:14.311Z,9.12
2019-03-24T18:04:39.647Z,9.09
2019-03-24T18:07:07.887Z,9.03
2019-03-24T18:09:36.365Z,9.03
2019-03-24T18:12:04.657Z,8.98
2019-03-24T18:14:33.051Z,8.97
2019-03-24T18:17:01.719Z,8.91
2019-03-24T18:19:29.954Z,8.87
2019-03-24T18:21:58.392Z,8.87
2019-03-24T18:24:26.667Z,8.85
2019-03-24T18:26:54.926Z,8.85
2019-03-24T18:29:23.305Z,8.82
2019-03-24T18:31:51.615Z,8.78
2019-03-24T18:34:20.418Z,8.78
2019-03-24T18:36:48.708Z,8.79
2019-03-24T18:39:17.825Z,8.73
2019-03-24T18:41:46.123Z,8.70
2019-03-24T18:44:14.393Z,8.69
2019-03-24T18:46:42.684Z,8.64
2019-03-24T18:49:10.922Z,8.61
2019-03-24T18:51:39.429Z,8.52
2019-03-24T18:54:08.019Z,8.50
2019-03-24T18:56:36.391Z,8.46
2019-03-24T18:59:04.977Z,8.42
2019-03-24T19:01:33.287Z,8.36
2019-03-24T19:04:01.602Z,8.30
2019-03-24T19:06:29.978Z,8.26
2019-03-24T19:08:58.229Z,8.20
2019-03-24T19:11:26.506Z,8.14
2019-03-24T19:13:54.947Z,8.12
2019-03-24T19:16:23.398Z,8.06
2019-03-24T19:18:51.824Z,8.05
2019-03-24T19:21:20.092Z,8.04
2019-03-24T19:23:48.881Z,7.98
2019-03-24T19:26:17.459Z,7.98
2019-03-24T19:28:45.830Z,7.89
2019-03-24T19:31:14.094Z,7.83
2019-03-24T19:33:42.732Z,7.80
2019-03-24T19:36:10.979Z,7.82
2019-03-24T19:38:39.405Z,7.75
2019-03-24T19:41:07.708Z,7.57
2019-03-24T19:43:35.954Z,7.51
2019-03-24T19:46:04.607Z,7.50
2019-03-24T19:48:32.941Z,7.45
2019-03-24T19:51:01.317Z,7.36
2019-03-24T19:53:29.570Z,7.36
2019-03-24T19:55:58.661Z,7.34
2019-03-24T19:58:26.978Z,7.31
2019-03-24T20:00:55.273Z,7.25
2019-03-24T20:03:23.520Z,7.21
2019-03-24T20:05:51.802Z,7.19
2019-03-24T20:08:20.174Z,7.14
2019-03-24T20:10:48.421Z,7.10
2019-03-24T20:13:16.711Z,7.03
2019-03-24T20:15:45.172Z,6.96
2019-03-24T20:18:13.414Z,6.87
2019-03-24T20:20:41.707Z,6.84
2019-03-24T20:23:10.030Z,6.80
2019-03-24T20:25:38.262Z,6.77
2019-03-24T20:28:06.543Z,6.69
2019-03-24T20:30:34.833Z,6.63
2019-03-24T20:33:03.099Z,6.56
2019-03-24T20:35:31.772Z,6.53
2019-03-24T20:38:00.356Z,6.51
2019-03-24T20:40:28.700Z,6.46
2019-03-24T20:42:56.963Z,6.42
2019-03-24T20:45:25.332Z,6.33
2019-03-24T20:47:53.563Z,6.28
2019-03-24T20:50:21.940Z,6.22
2019-03-24T20:52:50.211Z,6.16
2019-03-24T20:55:19.571Z,6.12
2019-03-24T20:57:47.871Z,6.05
2019-03-24T21:00:19.379Z,5.99
2019-03-24T21:02:47.737Z,5.99
2019-03-24T21:05:16.002Z,5.99
2019-03-24T21:07:45.176Z,5.90
2019-03-24T21:10:13.637Z,5.87
2019-03-24T21:12:41.947Z,5.79
2019-03-24T21:15:11.664Z,5.79
2019-03-24T21:17:40.261Z,5.73
2019-03-24T21:20:08.610Z,5.70
2019-03-24T21:22:36.929Z,5.61
2019-03-24T21:25:06.298Z,5.61
2019-03-24T21:27:34.739Z,5.63
2019-03-24T21:30:03.277Z,5.63
2019-03-24T21:32:31.541Z,5.63
2019-03-24T21:35:00.073Z,5.59
2019-03-24T21:37:28.388Z,5.57
2019-03-24T21:39:56.673Z,5.56
2019-03-24T21:42:25.386Z,5.56
2019-03-24T21:44:54.072Z,5.52
2019-03-24T21:47:22.326Z,5.45
2019-03-24T21:49:50.596Z,5.45
2019-03-24T21:52:19.709Z,5.50
2019-03-24T21:54:48.037Z,5.50
2019-03-24T21:57:16.325Z,5.44
2019-03-24T21:59:44.842Z,5.41
2019-03-24T22:02:13.512Z,5.41
2019-03-24T22:04:41.764Z,5.42
2019-03-24T22:07:10.298Z,5.37
2019-03-24T22:09:39.248Z,5.35
2019-03-24T22:12:07.588Z,5.34
2019-03-24T22:14:35.903Z,5.32
2019-03-24T22:17:04.185Z,5.34
2019-03-24T22:19:32.460Z,5.30
2019-03-24T22:22:00.725Z,5.32
2019-03-24T22:24:29.123Z,5.32
2019-03-24T22:26:57.513Z,5.36
2019-03-24T22:29:25.856Z,5.36
2019-03-24T22:31:54.105Z,5.36
2019-03-24T22:34:22.473Z,5.36
2019-03-24T22:36:51.062Z,5.31
2019-03-24T22:39:19.428Z,5.32
2019-03-24T22:41:47.724Z,5.31
2019-03-24T22:44:15.961Z,5.31
2019-03-24T22:46:44.232Z,5.25
2019-03-24T22:49:12.658Z,5.25
2019-03-24T22:51:40.896Z,5.26
2019-03-24T22:54:09.137Z,5.22
2019-03-24T22:56:37.488Z,5.23
2019-03-24T22:59:05.781Z,5.20
2019-03-24T23:01:34.211Z,5.20
2019-03-24T23:04:02.459Z,5.21
2019-03-24T23:06:30.735Z,5.23
2019-03-24T23:08:59.099Z,5.27
2019-03-24T23:11:27.419Z,5.33
2019-03-24T23:13:55.670Z,5.33
2019-03-24T23:16:24.012Z,5.40
2019-03-24T23:18:52.375Z,5.40
2019-03-24T23:21:20.663Z,5.40
2019-03-24T23:23:48.946Z,5.46
2019-03-24T23:26:17.244Z,5.49
2019-03-24T23:28:45.511Z,5.49
2019-03-24T23:31:13.820Z,5.44
2019-03-24T23:33:42.197Z,5.44
2019-03-24T23:36:10.446Z,5.51
2019-03-24T23:38:39.312Z,5.51
2019-03-24T23:41:08.275Z,5.54
2019-03-24T23:43:36.642Z,5.55
2019-03-24T23:46:04.886Z,5.55
2019-03-24T23:48:33.339Z,5.51
2019-03-24T23:51:01.655Z,5.52
2019-03-24T23:53:30.027Z,5.54
2019-03-24T23:55:58.479Z,5.54
2019-03-24T23:58:39.891Z,5.53
